sensor_id;sensor_type;location;lat;lon;timestamp;P1;durP1;ratioP1;P2;durP2;ratioP2
56830;SDS011;42713;42.676;23.352;2023-11-19T00:02:05;7.65;;;2.72;;
56830;SDS011;42713;42.676;23.352;2023-11-19T00:04:36;5.55;;;2.40;;
56830;SDS011;42713;42.676;23.352;2023-11-19T00:07:04;5.22;;;2.40;;
56830;SDS011;42713;42.676;23.352;2023-11-19T00:12:11;5.55;;;2.58;;
56830;SDS011;42713;42.676;23.352;2023-11-19T00:14:42;5.10;;;1.98;;
56830;SDS011;42713;42.676;23.352;2023-11-19T00:17:24;4.80;;;2.10;;
56830;SDS011;42713;42.676;23.352;2023-11-19T00:20:20;5.78;;;2.70;;
56830;SDS011;42713;42.676;23.352;2023-11-19T00:22:48;5.20;;;2.22;;
56830;SDS011;42713;42.676;23.352;2023-11-19T00:25:20;5.43;;;2.28;;
56830;SDS011;42713;42.676;23.352;2023-11-19T00:27:54;5.40;;;2.35;;
56830;SDS011;42713;42.676;23.352;2023-11-19T00:30:31;6.68;;;2.40;;
56830;SDS011;42713;42.676;23.352;2023-11-19T00:33:02;6.38;;;2.78;;
56830;SDS011;42713;42.676;23.352;2023-11-19T00:35:34;7.00;;;2.40;;
56830;SDS011;42713;42.676;23.352;2023-11-19T00:38:03;6.65;;;2.55;;
56830;SDS011;42713;42.676;23.352;2023-11-19T00:40:32;5.35;;;2.20;;
56830;SDS011;42713;42.676;23.352;2023-11-19T00:42:58;6.20;;;2.60;;
56830;SDS011;42713;42.676;23.352;2023-11-19T00:45:25;7.05;;;2.30;;
56830;SDS011;42713;42.676;23.352;2023-11-19T00:47:54;5.72;;;2.20;;
56830;SDS011;42713;42.676;23.352;2023-11-19T00:50:24;5.72;;;2.60;;
56830;SDS011;42713;42.676;23.352;2023-11-19T00:52:59;5.72;;;2.35;;
56830;SDS011;42713;42.676;23.352;2023-11-19T00:55:34;5.95;;;2.72;;
56830;SDS011;42713;42.676;23.352;2023-11-19T00:58:06;5.27;;;2.53;;
56830;SDS011;42713;42.676;23.352;2023-11-19T01:00:47;5.70;;;2.37;;
56830;SDS011;42713;42.676;23.352;2023-11-19T01:03:32;5.15;;;2.30;;
56830;SDS011;42713;42.676;23.352;2023-11-19T01:06:03;5.40;;;2.40;;
56830;SDS011;42713;42.676;23.352;2023-11-19T01:08:45;5.95;;;2.42;;
56830;SDS011;42713;42.676;23.352;2023-11-19T01:11:19;6.03;;;2.50;;
56830;SDS011;42713;42.676;23.352;2023-11-19T01:13:46;5.82;;;2.78;;
56830;SDS011;42713;42.676;23.352;2023-11-19T01:16:11;7.13;;;2.30;;
56830;SDS011;42713;42.676;23.352;2023-11-19T01:18:40;5.72;;;2.40;;
56830;SDS011;42713;42.676;23.352;2023-11-19T01:21:11;7.90;;;2.50;;
56830;SDS011;42713;42.676;23.352;2023-11-19T01:23:37;5.00;;;2.40;;
56830;SDS011;42713;42.676;23.352;2023-11-19T01:26:11;6.30;;;2.58;;
56830;SDS011;42713;42.676;23.352;2023-11-19T01:28:43;4.97;;;2.10;;
56830;SDS011;42713;42.676;23.352;2023-11-19T01:31:17;5.90;;;2.40;;
56830;SDS011;42713;42.676;23.352;2023-11-19T01:33:45;5.78;;;2.50;;
56830;SDS011;42713;42.676;23.352;2023-11-19T01:36:14;5.85;;;2.47;;
56830;SDS011;42713;42.676;23.352;2023-11-19T01:38:40;6.60;;;2.30;;
56830;SDS011;42713;42.676;23.352;2023-11-19T01:41:10;7.75;;;2.22;;
56830;SDS011;42713;42.676;23.352;2023-11-19T01:43:36;5.18;;;2.30;;
56830;SDS011;42713;42.676;23.352;2023-11-19T01:46:05;3.85;;;1.80;;
56830;SDS011;42713;42.676;23.352;2023-11-19T01:48:39;13.45;;;2.30;;
56830;SDS011;42713;42.676;23.352;2023-11-19T01:51:16;5.13;;;2.03;;
56830;SDS011;42713;42.676;23.352;2023-11-19T01:53:42;4.57;;;2.10;;
56830;SDS011;42713;42.676;23.352;2023-11-19T01:56:09;5.13;;;2.20;;
56830;SDS011;42713;42.676;23.352;2023-11-19T01:58:39;5.70;;;2.30;;
56830;SDS011;42713;42.676;23.352;2023-11-19T02:01:06;5.57;;;2.35;;
56830;SDS011;42713;42.676;23.352;2023-11-19T02:03:38;6.13;;;2.08;;
56830;SDS011;42713;42.676;23.352;2023-11-19T02:06:07;5.55;;;2.25;;
56830;SDS011;42713;42.676;23.352;2023-11-19T02:08:39;5.50;;;2.20;;
56830;SDS011;42713;42.676;23.352;2023-11-19T02:11:16;5.38;;;2.10;;
56830;SDS011;42713;42.676;23.352;2023-11-19T02:13:44;5.43;;;2.20;;
56830;SDS011;42713;42.676;23.352;2023-11-19T02:16:12;7.40;;;2.35;;
56830;SDS011;42713;42.676;23.352;2023-11-19T02:18:38;5.82;;;1.98;;
56830;SDS011;42713;42.676;23.352;2023-11-19T02:21:06;6.00;;;2.17;;
56830;SDS011;42713;42.676;23.352;2023-11-19T02:23:35;5.68;;;2.13;;
56830;SDS011;42713;42.676;23.352;2023-11-19T02:28:55;4.57;;;2.00;;
56830;SDS011;42713;42.676;23.352;2023-11-19T02:31:23;7.85;;;2.50;;
56830;SDS011;42713;42.676;23.352;2023-11-19T02:33:52;5.60;;;2.22;;
56830;SDS011;42713;42.676;23.352;2023-11-19T02:36:21;7.20;;;2.55;;
56830;SDS011;42713;42.676;23.352;2023-11-19T02:41:20;7.15;;;2.20;;
56830;SDS011;42713;42.676;23.352;2023-11-19T02:43:49;6.97;;;2.53;;
56830;SDS011;42713;42.676;23.352;2023-11-19T02:46:15;6.00;;;2.28;;
56830;SDS011;42713;42.676;23.352;2023-11-19T02:48:42;5.55;;;2.08;;
56830;SDS011;42713;42.676;23.352;2023-11-19T02:51:09;5.57;;;2.20;;
56830;SDS011;42713;42.676;23.352;2023-11-19T02:53:35;6.18;;;2.50;;
56830;SDS011;42713;42.676;23.352;2023-11-19T02:56:02;5.28;;;2.22;;
56830;SDS011;42713;42.676;23.352;2023-11-19T02:58:37;5.45;;;2.20;;
56830;SDS011;42713;42.676;23.352;2023-11-19T03:01:04;5.40;;;2.13;;
56830;SDS011;42713;42.676;23.352;2023-11-19T03:03:38;5.95;;;2.38;;
56830;SDS011;42713;42.676;23.352;2023-11-19T03:06:05;6.18;;;2.47;;
56830;SDS011;42713;42.676;23.352;2023-11-19T03:08:32;7.03;;;2.53;;
56830;SDS011;42713;42.676;23.352;2023-11-19T03:10:58;4.57;;;2.20;;
56830;SDS011;42713;42.676;23.352;2023-11-19T03:13:24;5.55;;;2.08;;
56830;SDS011;42713;42.676;23.352;2023-11-19T03:15:49;6.28;;;2.40;;
56830;SDS011;42713;42.676;23.352;2023-11-19T03:18:15;5.95;;;2.42;;
56830;SDS011;42713;42.676;23.352;2023-11-19T03:20:40;5.93;;;2.45;;
56830;SDS011;42713;42.676;23.352;2023-11-19T03:23:06;5.95;;;2.40;;
56830;SDS011;42713;42.676;23.352;2023-11-19T03:25:32;5.68;;;2.38;;
56830;SDS011;42713;42.676;23.352;2023-11-19T03:28:01;7.35;;;2.85;;
56830;SDS011;42713;42.676;23.352;2023-11-19T03:30:28;4.60;;;2.25;;
56830;SDS011;42713;42.676;23.352;2023-11-19T03:32:57;6.57;;;2.47;;
56830;SDS011;42713;42.676;23.352;2023-11-19T03:35:24;5.95;;;2.53;;
56830;SDS011;42713;42.676;23.352;2023-11-19T03:37:50;8.07;;;2.58;;
56830;SDS011;42713;42.676;23.352;2023-11-19T03:40:16;5.22;;;2.50;;
56830;SDS011;42713;42.676;23.352;2023-11-19T03:42:44;5.03;;;2.15;;
56830;SDS011;42713;42.676;23.352;2023-11-19T03:45:12;5.38;;;2.25;;
56830;SDS011;42713;42.676;23.352;2023-11-19T03:47:38;7.32;;;2.95;;
56830;SDS011;42713;42.676;23.352;2023-11-19T03:50:06;6.10;;;2.55;;
56830;SDS011;42713;42.676;23.352;2023-11-19T03:52:33;5.85;;;2.38;;
56830;SDS011;42713;42.676;23.352;2023-11-19T03:54:58;10.52;;;2.60;;
56830;SDS011;42713;42.676;23.352;2023-11-19T03:57:24;5.18;;;2.10;;
56830;SDS011;42713;42.676;23.352;2023-11-19T03:59:49;7.95;;;2.30;;
56830;SDS011;42713;42.676;23.352;2023-11-19T04:02:15;5.28;;;2.30;;
56830;SDS011;42713;42.676;23.352;2023-11-19T04:04:41;6.30;;;2.50;;
56830;SDS011;42713;42.676;23.352;2023-11-19T04:07:07;4.78;;;2.08;;
56830;SDS011;42713;42.676;23.352;2023-11-19T04:09:33;6.05;;;2.60;;
56830;SDS011;42713;42.676;23.352;2023-11-19T04:12:00;6.35;;;2.60;;
56830;SDS011;42713;42.676;23.352;2023-11-19T04:14:26;6.07;;;2.30;;
56830;SDS011;42713;42.676;23.352;2023-11-19T04:16:52;5.95;;;2.15;;
56830;SDS011;42713;42.676;23.352;2023-11-19T04:19:18;5.32;;;2.28;;
56830;SDS011;42713;42.676;23.352;2023-11-19T04:21:44;6.65;;;2.47;;
56830;SDS011;42713;42.676;23.352;2023-11-19T04:24:11;6.28;;;2.50;;
56830;SDS011;42713;42.676;23.352;2023-11-19T04:26:41;7.85;;;2.42;;
56830;SDS011;42713;42.676;23.352;2023-11-19T04:29:08;6.68;;;2.33;;
56830;SDS011;42713;42.676;23.352;2023-11-19T04:31:34;6.47;;;2.40;;
56830;SDS011;42713;42.676;23.352;2023-11-19T04:34:00;6.88;;;2.40;;
56830;SDS011;42713;42.676;23.352;2023-11-19T04:36:25;7.57;;;2.50;;
56830;SDS011;42713;42.676;23.352;2023-11-19T04:38:51;8.25;;;2.40;;
56830;SDS011;42713;42.676;23.352;2023-11-19T04:41:16;6.25;;;2.40;;
56830;SDS011;42713;42.676;23.352;2023-11-19T04:43:42;5.88;;;2.17;;
56830;SDS011;42713;42.676;23.352;2023-11-19T04:46:09;9.05;;;2.53;;
56830;SDS011;42713;42.676;23.352;2023-11-19T04:48:34;6.53;;;2.78;;
56830;SDS011;42713;42.676;23.352;2023-11-19T04:51:00;6.30;;;2.85;;
56830;SDS011;42713;42.676;23.352;2023-11-19T04:53:25;6.40;;;2.65;;
56830;SDS011;42713;42.676;23.352;2023-11-19T04:55:51;5.78;;;2.40;;
56830;SDS011;42713;42.676;23.352;2023-11-19T04:58:17;5.82;;;2.33;;
56830;SDS011;42713;42.676;23.352;2023-11-19T05:00:42;5.32;;;2.20;;
56830;SDS011;42713;42.676;23.352;2023-11-19T05:03:18;6.22;;;2.55;;
56830;SDS011;42713;42.676;23.352;2023-11-19T05:05:47;5.93;;;2.53;;
56830;SDS011;42713;42.676;23.352;2023-11-19T05:08:43;6.13;;;2.50;;
56830;SDS011;42713;42.676;23.352;2023-11-19T05:11:09;6.30;;;2.60;;
56830;SDS011;42713;42.676;23.352;2023-11-19T05:13:37;8.30;;;2.80;;
56830;SDS011;42713;42.676;23.352;2023-11-19T05:16:03;7.05;;;2.83;;
56830;SDS011;42713;42.676;23.352;2023-11-19T05:18:29;6.90;;;2.60;;
56830;SDS011;42713;42.676;23.352;2023-11-19T05:20:54;7.53;;;2.47;;
56830;SDS011;42713;42.676;23.352;2023-11-19T05:23:19;5.13;;;2.30;;
56830;SDS011;42713;42.676;23.352;2023-11-19T05:25:45;5.65;;;2.35;;
56830;SDS011;42713;42.676;23.352;2023-11-19T05:28:11;8.07;;;2.88;;
56830;SDS011;42713;42.676;23.352;2023-11-19T05:30:36;6.82;;;2.72;;
56830;SDS011;42713;42.676;23.352;2023-11-19T05:33:01;5.70;;;2.17;;
56830;SDS011;42713;42.676;23.352;2023-11-19T05:35:27;6.63;;;2.50;;
56830;SDS011;42713;42.676;23.352;2023-11-19T05:37:52;5.25;;;2.42;;
56830;SDS011;42713;42.676;23.352;2023-11-19T05:40:18;6.22;;;2.20;;
56830;SDS011;42713;42.676;23.352;2023-11-19T05:42:45;6.45;;;2.40;;
56830;SDS011;42713;42.676;23.352;2023-11-19T05:45:11;6.70;;;2.58;;
56830;SDS011;42713;42.676;23.352;2023-11-19T05:47:37;5.97;;;2.35;;
56830;SDS011;42713;42.676;23.352;2023-11-19T05:50:03;5.53;;;2.40;;
56830;SDS011;42713;42.676;23.352;2023-11-19T05:52:31;6.30;;;2.42;;
56830;SDS011;42713;42.676;23.352;2023-11-19T05:54:59;6.45;;;2.42;;
56830;SDS011;42713;42.676;23.352;2023-11-19T05:57:28;6.20;;;2.50;;
56830;SDS011;42713;42.676;23.352;2023-11-19T05:59:55;6.07;;;2.38;;
56830;SDS011;42713;42.676;23.352;2023-11-19T06:02:20;7.47;;;2.30;;
56830;SDS011;42713;42.676;23.352;2023-11-19T06:04:49;5.30;;;2.10;;
56830;SDS011;42713;42.676;23.352;2023-11-19T06:07:15;6.40;;;2.72;;
56830;SDS011;42713;42.676;23.352;2023-11-19T06:09:41;7.43;;;2.63;;
56830;SDS011;42713;42.676;23.352;2023-11-19T06:12:06;7.20;;;2.70;;
56830;SDS011;42713;42.676;23.352;2023-11-19T06:14:32;7.90;;;2.85;;
56830;SDS011;42713;42.676;23.352;2023-11-19T06:16:58;7.00;;;2.70;;
56830;SDS011;42713;42.676;23.352;2023-11-19T06:19:23;5.68;;;2.40;;
56830;SDS011;42713;42.676;23.352;2023-11-19T06:21:50;6.30;;;2.75;;
56830;SDS011;42713;42.676;23.352;2023-11-19T06:24:18;7.57;;;2.95;;
56830;SDS011;42713;42.676;23.352;2023-11-19T06:26:47;7.28;;;3.20;;
56830;SDS011;42713;42.676;23.352;2023-11-19T06:29:13;10.10;;;2.88;;
56830;SDS011;42713;42.676;23.352;2023-11-19T06:31:43;5.50;;;2.42;;
56830;SDS011;42713;42.676;23.352;2023-11-19T06:34:13;7.55;;;3.30;;
56830;SDS011;42713;42.676;23.352;2023-11-19T06:36:39;7.43;;;2.95;;
56830;SDS011;42713;42.676;23.352;2023-11-19T06:39:05;7.25;;;2.80;;
56830;SDS011;42713;42.676;23.352;2023-11-19T06:41:31;6.32;;;2.92;;
56830;SDS011;42713;42.676;23.352;2023-11-19T06:43:56;7.50;;;2.95;;
56830;SDS011;42713;42.676;23.352;2023-11-19T06:46:22;6.53;;;2.58;;
56830;SDS011;42713;42.676;23.352;2023-11-19T06:48:47;6.93;;;2.92;;
56830;SDS011;42713;42.676;23.352;2023-11-19T06:51:12;12.15;;;4.10;;
56830;SDS011;42713;42.676;23.352;2023-11-19T06:53:46;7.82;;;3.08;;
56830;SDS011;42713;42.676;23.352;2023-11-19T06:56:45;6.32;;;2.60;;
56830;SDS011;42713;42.676;23.352;2023-11-19T06:59:04;6.53;;;2.63;;
56830;SDS011;42713;42.676;23.352;2023-11-19T07:01:34;6.88;;;3.00;;
56830;SDS011;42713;42.676;23.352;2023-11-19T07:04:01;7.05;;;2.70;;
56830;SDS011;42713;42.676;23.352;2023-11-19T07:06:33;7.03;;;2.88;;
56830;SDS011;42713;42.676;23.352;2023-11-19T07:09:00;6.97;;;2.78;;
56830;SDS011;42713;42.676;23.352;2023-11-19T07:11:34;6.88;;;2.67;;
56830;SDS011;42713;42.676;23.352;2023-11-19T07:14:01;6.10;;;2.50;;
56830;SDS011;42713;42.676;23.352;2023-11-19T07:16:27;6.97;;;2.83;;
56830;SDS011;42713;42.676;23.352;2023-11-19T07:18:52;6.90;;;3.30;;
56830;SDS011;42713;42.676;23.352;2023-11-19T07:21:18;7.75;;;3.35;;
56830;SDS011;42713;42.676;23.352;2023-11-19T07:23:44;6.00;;;2.78;;
56830;SDS011;42713;42.676;23.352;2023-11-19T07:26:10;7.38;;;2.92;;
56830;SDS011;42713;42.676;23.352;2023-11-19T07:28:36;7.50;;;2.92;;
56830;SDS011;42713;42.676;23.352;2023-11-19T07:31:01;8.55;;;3.03;;
56830;SDS011;42713;42.676;23.352;2023-11-19T07:33:27;6.97;;;3.22;;
56830;SDS011;42713;42.676;23.352;2023-11-19T07:35:52;7.80;;;2.95;;
56830;SDS011;42713;42.676;23.352;2023-11-19T07:38:18;6.85;;;2.95;;
56830;SDS011;42713;42.676;23.352;2023-11-19T07:40:43;8.52;;;3.13;;
56830;SDS011;42713;42.676;23.352;2023-11-19T07:43:10;8.77;;;3.75;;
56830;SDS011;42713;42.676;23.352;2023-11-19T07:45:35;8.90;;;3.58;;
56830;SDS011;42713;42.676;23.352;2023-11-19T07:48:01;8.25;;;3.15;;
56830;SDS011;42713;42.676;23.352;2023-11-19T07:50:27;6.18;;;2.50;;
56830;SDS011;42713;42.676;23.352;2023-11-19T07:52:52;6.03;;;2.72;;
56830;SDS011;42713;42.676;23.352;2023-11-19T07:55:18;7.43;;;2.90;;
56830;SDS011;42713;42.676;23.352;2023-11-19T07:57:44;7.78;;;2.97;;
56830;SDS011;42713;42.676;23.352;2023-11-19T08:00:12;6.70;;;3.00;;
56830;SDS011;42713;42.676;23.352;2023-11-19T08:02:38;7.80;;;3.50;;
56830;SDS011;42713;42.676;23.352;2023-11-19T08:05:06;8.40;;;3.63;;
56830;SDS011;42713;42.676;23.352;2023-11-19T08:07:32;7.07;;;3.25;;
56830;SDS011;42713;42.676;23.352;2023-11-19T08:09:58;9.82;;;3.00;;
56830;SDS011;42713;42.676;23.352;2023-11-19T08:12:25;6.97;;;2.85;;
56830;SDS011;42713;42.676;23.352;2023-11-19T08:14:53;7.55;;;3.08;;
56830;SDS011;42713;42.676;23.352;2023-11-19T08:17:18;7.68;;;3.28;;
56830;SDS011;42713;42.676;23.352;2023-11-19T08:19:44;7.82;;;3.70;;
56830;SDS011;42713;42.676;23.352;2023-11-19T08:22:09;7.82;;;3.63;;
56830;SDS011;42713;42.676;23.352;2023-11-19T08:24:35;8.02;;;3.63;;
56830;SDS011;42713;42.676;23.352;2023-11-19T08:27:00;8.52;;;3.58;;
56830;SDS011;42713;42.676;23.352;2023-11-19T08:29:26;7.47;;;3.28;;
56830;SDS011;42713;42.676;23.352;2023-11-19T08:31:52;7.45;;;3.17;;
56830;SDS011;42713;42.676;23.352;2023-11-19T08:34:18;8.63;;;3.17;;
56830;SDS011;42713;42.676;23.352;2023-11-19T08:36:43;7.10;;;3.13;;
56830;SDS011;42713;42.676;23.352;2023-11-19T08:39:09;6.63;;;3.03;;
56830;SDS011;42713;42.676;23.352;2023-11-19T08:41:34;6.95;;;3.15;;
56830;SDS011;42713;42.676;23.352;2023-11-19T08:44:00;8.48;;;3.50;;
56830;SDS011;42713;42.676;23.352;2023-11-19T08:46:26;7.75;;;3.45;;
56830;SDS011;42713;42.676;23.352;2023-11-19T08:48:51;6.13;;;2.88;;
56830;SDS011;42713;42.676;23.352;2023-11-19T08:51:17;7.57;;;3.25;;
56830;SDS011;42713;42.676;23.352;2023-11-19T08:53:42;13.98;;;3.83;;
56830;SDS011;42713;42.676;23.352;2023-11-19T08:56:08;6.53;;;2.92;;
56830;SDS011;42713;42.676;23.352;2023-11-19T08:58:33;7.45;;;3.15;;
56830;SDS011;42713;42.676;23.352;2023-11-19T09:00:59;6.20;;;2.85;;
56830;SDS011;42713;42.676;23.352;2023-11-19T09:03:24;6.78;;;3.03;;
56830;SDS011;42713;42.676;23.352;2023-11-19T09:05:54;6.55;;;2.97;;
56830;SDS011;42713;42.676;23.352;2023-11-19T09:08:19;8.90;;;3.03;;
56830;SDS011;42713;42.676;23.352;2023-11-19T09:10:45;6.97;;;2.90;;
56830;SDS011;42713;42.676;23.352;2023-11-19T09:13:10;7.60;;;3.28;;
56830;SDS011;42713;42.676;23.352;2023-11-19T09:15:36;7.45;;;3.30;;
56830;SDS011;42713;42.676;23.352;2023-11-19T09:18:04;10.70;;;3.65;;
56830;SDS011;42713;42.676;23.352;2023-11-19T09:20:30;11.23;;;3.67;;
56830;SDS011;42713;42.676;23.352;2023-11-19T09:23:02;7.35;;;3.20;;
56830;SDS011;42713;42.676;23.352;2023-11-19T09:25:28;8.82;;;3.47;;
56830;SDS011;42713;42.676;23.352;2023-11-19T09:27:55;7.55;;;3.60;;
56830;SDS011;42713;42.676;23.352;2023-11-19T09:30:20;6.55;;;2.88;;
56830;SDS011;42713;42.676;23.352;2023-11-19T09:32:46;9.13;;;3.70;;
56830;SDS011;42713;42.676;23.352;2023-11-19T09:35:11;8.57;;;3.60;;
56830;SDS011;42713;42.676;23.352;2023-11-19T09:37:40;8.65;;;3.70;;
56830;SDS011;42713;42.676;23.352;2023-11-19T09:40:05;7.78;;;3.45;;
56830;SDS011;42713;42.676;23.352;2023-11-19T09:42:38;7.70;;;3.13;;
56830;SDS011;42713;42.676;23.352;2023-11-19T09:45:12;10.88;;;3.15;;
56830;SDS011;42713;42.676;23.352;2023-11-19T09:47:40;7.27;;;3.37;;
56830;SDS011;42713;42.676;23.352;2023-11-19T09:50:08;6.85;;;3.05;;
56830;SDS011;42713;42.676;23.352;2023-11-19T09:52:34;7.75;;;3.28;;
56830;SDS011;42713;42.676;23.352;2023-11-19T09:55:00;7.32;;;3.00;;
56830;SDS011;42713;42.676;23.352;2023-11-19T09:57:26;6.32;;;2.65;;
56830;SDS011;42713;42.676;23.352;2023-11-19T09:59:56;7.03;;;2.67;;
56830;SDS011;42713;42.676;23.352;2023-11-19T10:02:23;7.15;;;2.90;;
56830;SDS011;42713;42.676;23.352;2023-11-19T10:04:49;6.55;;;3.00;;
56830;SDS011;42713;42.676;23.352;2023-11-19T10:07:16;7.22;;;3.08;;
56830;SDS011;42713;42.676;23.352;2023-11-19T10:09:41;6.80;;;3.47;;
56830;SDS011;42713;42.676;23.352;2023-11-19T10:12:07;7.53;;;2.83;;
56830;SDS011;42713;42.676;23.352;2023-11-19T10:14:32;7.53;;;2.88;;
56830;SDS011;42713;42.676;23.352;2023-11-19T10:17:02;6.70;;;2.75;;
56830;SDS011;42713;42.676;23.352;2023-11-19T10:19:31;5.93;;;2.78;;
56830;SDS011;42713;42.676;23.352;2023-11-19T10:22:05;7.50;;;2.58;;
56830;SDS011;42713;42.676;23.352;2023-11-19T10:24:31;5.80;;;2.25;;
56830;SDS011;42713;42.676;23.352;2023-11-19T10:27:01;6.20;;;2.55;;
56830;SDS011;42713;42.676;23.352;2023-11-19T10:29:29;6.85;;;2.88;;
56830;SDS011;42713;42.676;23.352;2023-11-19T10:31:55;6.95;;;2.90;;
56830;SDS011;42713;42.676;23.352;2023-11-19T10:34:25;7.13;;;3.17;;
56830;SDS011;42713;42.676;23.352;2023-11-19T10:36:52;6.78;;;3.08;;
56830;SDS011;42713;42.676;23.352;2023-11-19T10:39:17;6.53;;;3.05;;
56830;SDS011;42713;42.676;23.352;2023-11-19T10:41:43;7.95;;;2.95;;
56830;SDS011;42713;42.676;23.352;2023-11-19T10:44:08;6.28;;;2.50;;
56830;SDS011;42713;42.676;23.352;2023-11-19T10:46:40;5.60;;;2.38;;
56830;SDS011;42713;42.676;23.352;2023-11-19T10:49:07;6.93;;;2.72;;
56830;SDS011;42713;42.676;23.352;2023-11-19T10:51:33;6.10;;;2.60;;
56830;SDS011;42713;42.676;23.352;2023-11-19T10:54:01;6.43;;;2.70;;
56830;SDS011;42713;42.676;23.352;2023-11-19T10:56:30;5.43;;;2.28;;
56830;SDS011;42713;42.676;23.352;2023-11-19T10:58:57;7.22;;;2.90;;
56830;SDS011;42713;42.676;23.352;2023-11-19T11:17:46;6.55;;;2.65;;
56830;SDS011;42713;42.676;23.352;2023-11-19T11:31:02;6.05;;;2.28;;
56830;SDS011;42713;42.676;23.352;2023-11-19T11:36:21;5.53;;;2.42;;
56830;SDS011;42713;42.676;23.352;2023-11-19T11:38:48;6.70;;;2.53;;
56830;SDS011;42713;42.676;23.352;2023-11-19T11:43:44;4.50;;;1.95;;
56830;SDS011;42713;42.676;23.352;2023-11-19T11:46:12;5.60;;;2.20;;
56830;SDS011;42713;42.676;23.352;2023-11-19T11:49:04;5.25;;;2.00;;
56830;SDS011;42713;42.676;23.352;2023-11-19T11:57:35;6.40;;;2.28;;
56830;SDS011;42713;42.676;23.352;2023-11-19T12:02:11;6.07;;;2.28;;
56830;SDS011;42713;42.676;23.352;2023-11-19T12:04:42;5.05;;;1.80;;
56830;SDS011;42713;42.676;23.352;2023-11-19T12:07:08;5.13;;;2.00;;
56830;SDS011;42713;42.676;23.352;2023-11-19T12:09:41;7.60;;;2.47;;
56830;SDS011;42713;42.676;23.352;2023-11-19T12:20:07;5.93;;;2.60;;
56830;SDS011;42713;42.676;23.352;2023-11-19T12:22:43;6.18;;;2.35;;
56830;SDS011;42713;42.676;23.352;2023-11-19T12:25:10;6.15;;;2.35;;
56830;SDS011;42713;42.676;23.352;2023-11-19T12:27:43;10.07;;;2.97;;
56830;SDS011;42713;42.676;23.352;2023-11-19T12:30:09;5.00;;;2.25;;
56830;SDS011;42713;42.676;23.352;2023-11-19T12:32:40;6.00;;;2.47;;
56830;SDS011;42713;42.676;23.352;2023-11-19T12:35:10;6.53;;;2.50;;
56830;SDS011;42713;42.676;23.352;2023-11-19T12:37:40;6.63;;;2.95;;
56830;SDS011;42713;42.676;23.352;2023-11-19T12:42:50;7.38;;;2.72;;
56830;SDS011;42713;42.676;23.352;2023-11-19T12:45:17;6.93;;;2.80;;
56830;SDS011;42713;42.676;23.352;2023-11-19T12:47:45;6.53;;;2.60;;
56830;SDS011;42713;42.676;23.352;2023-11-19T12:50:14;7.90;;;3.05;;
56830;SDS011;42713;42.676;23.352;2023-11-19T12:52:42;7.47;;;3.10;;
56830;SDS011;42713;42.676;23.352;2023-11-19T12:55:25;8.63;;;3.63;;
56830;SDS011;42713;42.676;23.352;2023-11-19T12:57:55;6.28;;;2.75;;
56830;SDS011;42713;42.676;23.352;2023-11-19T13:00:23;11.15;;;3.45;;
56830;SDS011;42713;42.676;23.352;2023-11-19T13:02:52;6.28;;;2.50;;
56830;SDS011;42713;42.676;23.352;2023-11-19T13:05:26;6.65;;;2.58;;
56830;SDS011;42713;42.676;23.352;2023-11-19T13:08:12;6.65;;;2.70;;
56830;SDS011;42713;42.676;23.352;2023-11-19T13:10:51;5.50;;;2.17;;
56830;SDS011;42713;42.676;23.352;2023-11-19T13:13:21;8.27;;;3.17;;
56830;SDS011;42713;42.676;23.352;2023-11-19T13:15:49;6.50;;;2.50;;
56830;SDS011;42713;42.676;23.352;2023-11-19T13:18:15;7.45;;;2.78;;
56830;SDS011;42713;42.676;23.352;2023-11-19T13:20:41;9.30;;;3.03;;
56830;SDS011;42713;42.676;23.352;2023-11-19T13:23:07;6.15;;;2.45;;
56830;SDS011;42713;42.676;23.352;2023-11-19T13:25:36;6.57;;;2.72;;
56830;SDS011;42713;42.676;23.352;2023-11-19T13:28:02;6.93;;;2.60;;
56830;SDS011;42713;42.676;23.352;2023-11-19T13:30:38;11.38;;;3.05;;
56830;SDS011;42713;42.676;23.352;2023-11-19T13:33:04;6.97;;;2.85;;
56830;SDS011;42713;42.676;23.352;2023-11-19T13:35:30;9.07;;;3.00;;
56830;SDS011;42713;42.676;23.352;2023-11-19T13:37:55;9.32;;;3.55;;
56830;SDS011;42713;42.676;23.352;2023-11-19T13:40:23;8.75;;;3.00;;
56830;SDS011;42713;42.676;23.352;2023-11-19T13:42:49;9.60;;;3.78;;
56830;SDS011;42713;42.676;23.352;2023-11-19T13:45:15;6.47;;;2.92;;
56830;SDS011;42713;42.676;23.352;2023-11-19T13:47:44;8.27;;;3.33;;
56830;SDS011;42713;42.676;23.352;2023-11-19T13:50:11;7.68;;;3.22;;
56830;SDS011;42713;42.676;23.352;2023-11-19T13:52:43;7.68;;;3.08;;
56830;SDS011;42713;42.676;23.352;2023-11-19T13:55:12;7.70;;;3.38;;
56830;SDS011;42713;42.676;23.352;2023-11-19T13:57:47;8.48;;;3.70;;
56830;SDS011;42713;42.676;23.352;2023-11-19T14:00:15;7.05;;;2.88;;
56830;SDS011;42713;42.676;23.352;2023-11-19T14:02:49;9.27;;;3.00;;
56830;SDS011;42713;42.676;23.352;2023-11-19T14:05:17;8.30;;;3.65;;
56830;SDS011;42713;42.676;23.352;2023-11-19T14:07:48;8.38;;;3.15;;
56830;SDS011;42713;42.676;23.352;2023-11-19T14:10:15;10.75;;;3.10;;
56830;SDS011;42713;42.676;23.352;2023-11-19T14:12:41;9.10;;;3.38;;
56830;SDS011;42713;42.676;23.352;2023-11-19T14:15:10;8.48;;;3.50;;
56830;SDS011;42713;42.676;23.352;2023-11-19T14:17:42;7.75;;;2.53;;
56830;SDS011;42713;42.676;23.352;2023-11-19T14:20:08;7.25;;;2.90;;
56830;SDS011;42713;42.676;23.352;2023-11-19T14:22:44;8.88;;;3.53;;
56830;SDS011;42713;42.676;23.352;2023-11-19T14:25:11;7.75;;;3.17;;
56830;SDS011;42713;42.676;23.352;2023-11-19T14:27:37;7.25;;;3.05;;
56830;SDS011;42713;42.676;23.352;2023-11-19T14:30:07;7.07;;;3.08;;
56830;SDS011;42713;42.676;23.352;2023-11-19T14:32:38;7.82;;;3.33;;
56830;SDS011;42713;42.676;23.352;2023-11-19T14:37:42;7.25;;;3.03;;
56830;SDS011;42713;42.676;23.352;2023-11-19T14:40:08;7.65;;;3.33;;
56830;SDS011;42713;42.676;23.352;2023-11-19T14:42:36;7.68;;;3.45;;
56830;SDS011;42713;42.676;23.352;2023-11-19T14:45:02;8.38;;;3.60;;
56830;SDS011;42713;42.676;23.352;2023-11-19T14:47:28;7.95;;;3.70;;
56830;SDS011;42713;42.676;23.352;2023-11-19T14:49:54;7.65;;;3.33;;
56830;SDS011;42713;42.676;23.352;2023-11-19T14:52:25;8.85;;;4.70;;
56830;SDS011;42713;42.676;23.352;2023-11-19T14:54:51;8.50;;;3.28;;
56830;SDS011;42713;42.676;23.352;2023-11-19T14:57:19;8.30;;;3.50;;
56830;SDS011;42713;42.676;23.352;2023-11-19T14:59:44;9.50;;;3.75;;
56830;SDS011;42713;42.676;23.352;2023-11-19T15:02:11;7.82;;;3.25;;
56830;SDS011;42713;42.676;23.352;2023-11-19T15:04:36;10.18;;;3.92;;
56830;SDS011;42713;42.676;23.352;2023-11-19T15:07:02;8.10;;;3.85;;
56830;SDS011;42713;42.676;23.352;2023-11-19T15:09:32;10.82;;;3.90;;
56830;SDS011;42713;42.676;23.352;2023-11-19T15:11:58;10.30;;;3.80;;
56830;SDS011;42713;42.676;23.352;2023-11-19T15:14:24;9.18;;;4.00;;
56830;SDS011;42713;42.676;23.352;2023-11-19T15:16:50;9.60;;;4.22;;
56830;SDS011;42713;42.676;23.352;2023-11-19T15:19:16;9.95;;;4.68;;
56830;SDS011;42713;42.676;23.352;2023-11-19T15:21:42;9.60;;;4.43;;
56830;SDS011;42713;42.676;23.352;2023-11-19T15:24:07;10.35;;;4.32;;
56830;SDS011;42713;42.676;23.352;2023-11-19T15:26:36;10.95;;;4.55;;
56830;SDS011;42713;42.676;23.352;2023-11-19T15:29:02;9.23;;;4.40;;
56830;SDS011;42713;42.676;23.352;2023-11-19T15:31:29;9.20;;;4.05;;
56830;SDS011;42713;42.676;23.352;2023-11-19T15:33:55;10.23;;;4.90;;
56830;SDS011;42713;42.676;23.352;2023-11-19T15:36:21;10.85;;;4.30;;
56830;SDS011;42713;42.676;23.352;2023-11-19T15:38:48;10.43;;;3.90;;
56830;SDS011;42713;42.676;23.352;2023-11-19T15:41:13;8.95;;;4.30;;